createdAt,value
2018-10-06T00:02:57.026Z,7.67
2018-10-06T00:08:01.897Z,8.27
2018-10-06T00:13:06.839Z,8.00
2018-10-06T00:18:11.848Z,8.07
2018-10-06T00:23:17.165Z,8.90
2018-10-06T00:28:22.101Z,8.27
2018-10-06T00:33:27.001Z,8.37
2018-10-06T00:38:32.055Z,8.27
2018-10-06T00:43:36.948Z,8.30
2018-10-06T00:48:41.946Z,8.23
2018-10-06T00:53:46.984Z,8.40
2018-10-06T00:58:51.981Z,8.30
2018-10-06T01:03:56.833Z,9.37
2018-10-06T01:09:01.798Z,8.73
2018-10-06T01:14:06.813Z,9.67
2018-10-06T01:19:11.666Z,9.23
2018-10-06T01:24:16.660Z,9.33
2018-10-06T01:29:21.599Z,10.40
2018-10-06T01:34:26.492Z,9.33
2018-10-06T01:39:32.007Z,9.53
2018-10-06T01:44:36.886Z,8.87
2018-10-06T01:49:42.002Z,9.30
2018-10-06T01:54:47.069Z,10.33
2018-10-06T01:59:51.993Z,10.30
2018-10-06T02:04:56.887Z,10.07
2018-10-06T02:10:01.868Z,11.20
2018-10-06T02:15:06.946Z,11.20
2018-10-06T02:20:11.833Z,12.07
2018-10-06T02:25:16.808Z,12.90
2018-10-06T02:30:21.736Z,12.97
2018-10-06T02:35:26.754Z,12.37
2018-10-06T02:40:31.678Z,12.47
2018-10-06T02:45:43.264Z,13.57
2018-10-06T02:50:48.392Z,12.97
2018-10-06T02:55:53.379Z,13.23
2018-10-06T03:01:04.726Z,13.03
2018-10-06T03:06:10.225Z,12.97
2018-10-06T03:11:15.162Z,12.23
2018-10-06T03:16:20.117Z,11.43
2018-10-06T03:21:24.965Z,11.70
2018-10-06T03:26:29.922Z,12.40
2018-10-06T03:31:34.832Z,12.53
2018-10-06T03:36:39.848Z,11.37
2018-10-06T03:41:46.159Z,12.90
2018-10-06T03:46:51.196Z,12.07
2018-10-06T03:51:56.153Z,12.23
2018-10-06T03:57:00.974Z,11.77
2018-10-06T04:02:06.050Z,11.33
2018-10-06T04:07:11.318Z,12.33
2018-10-06T04:12:16.729Z,11.43
2018-10-06T04:17:21.603Z,11.77
2018-10-06T04:22:26.646Z,11.63
2018-10-06T04:27:31.782Z,11.93
2018-10-06T04:32:36.794Z,12.67
2018-10-06T04:37:41.944Z,11.53
2018-10-06T04:42:46.812Z,11.73
2018-10-06T04:47:51.879Z,11.07
2018-10-06T04:52:56.898Z,12.93
2018-10-06T04:58:01.802Z,12.60
2018-10-06T05:03:06.949Z,13.67
2018-10-06T05:08:12.076Z,13.83
2018-10-06T05:13:17.120Z,12.90
2018-10-06T05:18:22.014Z,12.27
2018-10-06T05:23:26.939Z,12.53
2018-10-06T05:28:32.278Z,13.00
2018-10-06T05:33:37.141Z,13.30
2018-10-06T05:38:42.146Z,13.70
2018-10-06T05:43:47.034Z,12.77
2018-10-06T05:48:52.017Z,12.97
2018-10-06T05:53:57.135Z,12.53
2018-10-06T05:59:02.947Z,11.90
2018-10-06T06:04:07.946Z,13.00
2018-10-06T06:09:13.173Z,14.03
2018-10-06T06:14:18.071Z,13.43
2018-10-06T06:19:22.897Z,13.07
2018-10-06T06:24:28.167Z,14.43
2018-10-06T06:29:33.442Z,13.93
2018-10-06T06:34:38.317Z,12.60
2018-10-06T06:39:43.741Z,14.70
2018-10-06T06:44:48.869Z,13.53
2018-10-06T06:49:53.959Z,13.77
2018-10-06T06:54:58.915Z,14.27
2018-10-06T07:00:04.001Z,15.63
2018-10-06T07:05:08.929Z,14.37
2018-10-06T07:10:14.317Z,13.70
2018-10-06T07:15:19.357Z,13.47
2018-10-06T07:20:24.549Z,13.97
2018-10-06T07:25:30.550Z,12.23
2018-10-06T07:30:35.745Z,14.83
2018-10-06T07:35:41.065Z,13.70
2018-10-06T07:40:46.169Z,13.43
2018-10-06T07:45:51.184Z,12.10
2018-10-06T07:50:56.054Z,12.37
2018-10-06T07:56:01.481Z,12.30
2018-10-06T08:01:06.557Z,11.70
2018-10-06T08:06:11.796Z,10.90
2018-10-06T08:11:17.061Z,11.63
2018-10-06T08:16:22.211Z,11.57
2018-10-06T08:21:27.496Z,10.20
2018-10-06T08:26:32.607Z,9.40
2018-10-06T08:31:37.709Z,9.40
2018-10-06T08:36:43.049Z,8.13
2018-10-06T08:41:48.228Z,10.03
2018-10-06T08:46:53.116Z,8.97
2018-10-06T08:51:58.179Z,8.93
2018-10-06T08:57:03.285Z,8.23
2018-10-06T09:02:08.609Z,8.60
2018-10-06T09:07:13.814Z,7.97
2018-10-06T09:12:18.813Z,8.03
2018-10-06T09:17:23.972Z,8.27
2018-10-06T09:22:29.051Z,8.73
2018-10-06T09:27:34.667Z,8.20
2018-10-06T09:32:39.803Z,9.10
2018-10-06T09:37:44.788Z,8.70
2018-10-06T09:42:49.778Z,8.73
2018-10-06T09:47:55.198Z,9.00
2018-10-06T09:53:01.030Z,8.17
2018-10-06T09:58:06.187Z,11.40
2018-10-06T10:03:16.562Z,8.63
2018-10-06T10:08:21.801Z,7.80
2018-10-06T10:13:26.686Z,9.10
2018-10-06T10:18:33.420Z,10.87
2018-10-06T10:23:38.675Z,9.63
2018-10-06T10:28:44.191Z,10.60
2018-10-06T10:33:49.330Z,9.23
2018-10-06T10:38:54.514Z,8.57
2018-10-06T10:43:59.777Z,9.40
2018-10-06T10:49:04.711Z,8.83
2018-10-06T10:54:10.323Z,7.40
2018-10-06T10:59:15.209Z,8.27
2018-10-06T11:04:20.225Z,7.60
2018-10-06T11:09:25.299Z,6.90
2018-10-06T11:14:30.161Z,8.10
2018-10-06T11:19:35.090Z,5.83
2018-10-06T11:24:40.535Z,5.60
2018-10-06T11:29:45.682Z,6.63
2018-10-06T11:34:50.786Z,6.60
2018-10-06T11:39:55.885Z,5.57
2018-10-06T11:45:01.018Z,7.20
2018-10-06T11:50:06.433Z,6.70
2018-10-06T11:55:12.205Z,6.63
2018-10-06T12:00:17.443Z,9.50
2018-10-06T12:05:22.458Z,7.57
2018-10-06T12:10:27.591Z,7.50
2018-10-06T12:15:32.950Z,8.07
2018-10-06T12:20:38.515Z,14.03
2018-10-06T12:25:50.084Z,7.90
2018-10-06T12:30:55.325Z,9.87
2018-10-06T12:36:00.556Z,6.30
2018-10-06T12:41:05.662Z,6.57
2018-10-06T12:46:10.944Z,6.83
2018-10-06T12:51:16.240Z,5.67
2018-10-06T12:56:21.406Z,6.07
2018-10-06T13:01:26.402Z,6.80
2018-10-06T13:06:31.486Z,4.53
2018-10-06T13:11:36.470Z,5.33
2018-10-06T13:16:41.698Z,6.43
2018-10-06T13:21:46.780Z,4.50
2018-10-06T13:26:51.929Z,4.10
2018-10-06T13:31:56.888Z,3.70
2018-10-06T13:37:01.985Z,3.60
2018-10-06T13:42:07.083Z,4.40
2018-10-06T13:47:12.203Z,2.73
2018-10-06T13:52:17.476Z,3.57
2018-10-06T13:57:22.674Z,2.87
2018-10-06T14:02:27.985Z,4.67
2018-10-06T14:07:33.249Z,3.50
2018-10-06T14:12:38.619Z,3.30
2018-10-06T14:17:44.953Z,2.90
2018-10-06T14:22:49.991Z,2.70
2018-10-06T14:27:55.043Z,3.17
2018-10-06T14:33:00.037Z,3.53
2018-10-06T14:38:05.300Z,2.80
2018-10-06T14:43:10.389Z,3.37
2018-10-06T14:48:15.392Z,2.97
2018-10-06T14:53:20.335Z,3.90
2018-10-06T14:58:25.512Z,3.67
2018-10-06T15:03:30.808Z,3.27
2018-10-06T15:08:36.126Z,2.85
2018-10-06T15:13:41.127Z,3.98
2018-10-06T15:18:46.262Z,3.53
2018-10-06T15:23:51.174Z,3.47
2018-10-06T15:28:56.185Z,4.57
2018-10-06T15:34:01.303Z,3.97
2018-10-06T15:39:08.203Z,4.30
2018-10-06T15:44:13.240Z,4.30
2018-10-06T15:49:18.371Z,4.47
2018-10-06T15:54:23.414Z,3.87
2018-10-06T15:59:28.288Z,4.80
2018-10-06T16:04:33.616Z,4.70
2018-10-06T16:09:38.468Z,4.63
2018-10-06T16:14:43.457Z,4.83
2018-10-06T16:19:48.878Z,5.00
2018-10-06T16:24:54.297Z,4.83
2018-10-06T16:29:59.665Z,5.60
2018-10-06T16:35:04.868Z,4.97
2018-10-06T16:40:09.904Z,5.27
2018-10-06T16:45:15.097Z,5.47
2018-10-06T16:50:20.125Z,5.33
2018-10-06T16:55:25.045Z,5.03
2018-10-06T17:00:30.098Z,6.00
2018-10-06T17:05:35.075Z,6.50
2018-10-06T17:10:39.954Z,6.27
2018-10-06T17:15:45.019Z,5.90
2018-10-06T17:20:49.926Z,5.70
2018-10-06T17:25:55.094Z,6.23
2018-10-06T17:31:00.103Z,6.20
2018-10-06T17:36:05.212Z,5.83
2018-10-06T17:41:10.271Z,5.97
2018-10-06T17:46:15.808Z,6.60
2018-10-06T17:51:20.866Z,6.10
2018-10-06T17:56:26.095Z,7.57
2018-10-06T18:01:31.324Z,6.07
2018-10-06T18:06:36.385Z,6.17
2018-10-06T18:11:41.543Z,6.20
2018-10-06T18:16:47.305Z,9.07
2018-10-06T18:21:52.173Z,6.00
2018-10-06T18:26:57.335Z,5.50
2018-10-06T18:32:03.309Z,5.70
2018-10-06T18:37:08.412Z,6.73
2018-10-06T18:42:13.530Z,6.47
2018-10-06T18:47:18.800Z,6.13
2018-10-06T18:52:24.119Z,4.83
2018-10-06T18:57:29.165Z,6.63
2018-10-06T19:02:34.381Z,6.03
2018-10-06T19:07:39.543Z,6.60
2018-10-06T19:12:44.801Z,4.40
2018-10-06T19:17:50.042Z,6.60
2018-10-06T19:22:54.969Z,5.33
2018-10-06T19:28:00.332Z,4.53
2018-10-06T19:33:05.988Z,6.83
2018-10-06T19:38:11.268Z,4.17
2018-10-06T19:43:16.301Z,7.07
2018-10-06T19:48:21.374Z,5.60
2018-10-06T19:53:26.378Z,6.60
2018-10-06T19:58:31.508Z,8.20
2018-10-06T20:03:36.527Z,8.80
2018-10-06T20:08:41.785Z,9.20
2018-10-06T20:13:47.221Z,8.57
2018-10-06T20:18:52.216Z,8.03
2018-10-06T20:23:57.171Z,8.30
2018-10-06T20:29:02.396Z,7.33
2018-10-06T20:34:07.474Z,6.67
2018-10-06T20:39:12.396Z,6.90
2018-10-06T20:44:18.171Z,7.30
2018-10-06T20:49:23.074Z,7.90
2018-10-06T20:54:28.137Z,7.13
2018-10-06T20:59:33.300Z,8.77
2018-10-06T21:04:38.400Z,7.47
2018-10-06T21:09:44.480Z,7.83
2018-10-06T21:14:49.539Z,7.77
2018-10-06T21:19:54.423Z,7.33
2018-10-06T21:24:59.561Z,8.40
2018-10-06T21:30:04.800Z,7.57
2018-10-06T21:35:09.934Z,8.53
2018-10-06T21:40:15.096Z,8.40
2018-10-06T21:45:20.263Z,9.93
2018-10-06T21:50:25.235Z,7.37
2018-10-06T21:55:30.132Z,8.77
2018-10-06T22:00:35.279Z,9.37
2018-10-06T22:05:40.358Z,8.80
2018-10-06T22:10:45.531Z,8.87
2018-10-06T22:15:50.738Z,9.00
2018-10-06T22:20:55.978Z,11.33
2018-10-06T22:26:01.390Z,10.47
2018-10-06T22:31:06.746Z,9.47
2018-10-06T22:36:11.832Z,9.90
2018-10-06T22:41:17.036Z,9.20
2018-10-06T22:46:22.145Z,8.30
2018-10-06T22:51:27.394Z,7.80
2018-10-06T22:56:32.612Z,7.90
2018-10-06T23:01:37.500Z,8.83
2018-10-06T23:06:42.553Z,8.10
2018-10-06T23:11:47.661Z,7.60
2018-10-06T23:16:52.581Z,7.73
2018-10-06T23:21:57.563Z,7.60
2018-10-06T23:27:02.515Z,7.47
2018-10-06T23:32:07.622Z,7.67
2018-10-06T23:37:12.762Z,8.20
2018-10-06T23:42:24.320Z,7.83
2018-10-06T23:47:29.450Z,7.90
2018-10-06T23:52:34.391Z,7.97
2018-10-06T23:57:39.298Z,7.73
